Hlavní strana
METAR-TAF:

METAR-TAF

Letiště :

Dakar, Senegal

zeměpisná šířka: 14-44N, zeměpisná délka: 017-30W, výška: 27 m

Aktuální stav počasí

Zpráva byla vytvořena před 1 hodinou a 57 minutami, v 03:00 UTC
Severní vítr 8 kt
Teplota 22°C
Vlhkost vzduchu 94%
Tlak 1012 hPa
Viditelnost: 8000 m

METAR: GOOY 160300Z 36008KT 8000 NSC 22/21 Q1012

Čas: 04:57 (04:57 UTC)

Předpověď počasí

Zpráva byla vytvořena před 5 hodinami a 27 minutami, v 23:30 UTC
Předpověď platná od 16 v 00 UTC do 17 v 06 UTC
Severní vítr 10 kt
Viditelnost: 8000 m

TAF: GOOY 152330Z 1600/1706 35010KT 8000 NSC

Stav a předpovědi počasí z více než 4 000 letišť (zprávy METAR a TAF).

Červené a žluté tečky na mapě představují dostupné meteorologické stanice.

Když kurzor umístíte na tečku, zobrazí se název stanice.

Pak kliknutím zobrazíte stav a předpověď počasí.

Chcete-li změnit mapu, kliknutím na zelené tlačítko se znaménkem +mapu přiblížíte, kliknutím na zelené tlačítko se znaménkem – mapu oddálíte a kliknutím na zelené šipky přejdete na sousední mapy.


METAR-TAF: